sensor_id;sensor_type;location;lat;lon;timestamp;P1;durP1;ratioP1;P2;durP2;ratioP2
6422;SDS011;3244;42.708;23.288;2023-07-24T00:00:20;10.80;;;8.95;;
6422;SDS011;3244;42.708;23.288;2023-07-24T00:02:47;9.90;;;8.48;;
6422;SDS011;3244;42.708;23.288;2023-07-24T00:05:13;9.35;;;8.45;;
6422;SDS011;3244;42.708;23.288;2023-07-24T00:07:41;8.50;;;7.68;;
6422;SDS011;3244;42.708;23.288;2023-07-24T00:10:07;9.38;;;8.57;;
6422;SDS011;3244;42.708;23.288;2023-07-24T00:12:34;8.63;;;7.85;;
6422;SDS011;3244;42.708;23.288;2023-07-24T00:15:00;8.68;;;7.70;;
6422;SDS011;3244;42.708;23.288;2023-07-24T00:17:27;10.23;;;9.35;;
6422;SDS011;3244;42.708;23.288;2023-07-24T00:19:53;10.45;;;9.30;;
6422;SDS011;3244;42.708;23.288;2023-07-24T00:22:20;9.75;;;8.13;;
6422;SDS011;3244;42.708;23.288;2023-07-24T00:24:47;10.88;;;9.45;;
6422;SDS011;3244;42.708;23.288;2023-07-24T00:27:14;9.15;;;7.75;;
6422;SDS011;3244;42.708;23.288;2023-07-24T00:29:40;9.07;;;8.20;;
6422;SDS011;3244;42.708;23.288;2023-07-24T00:32:07;11.63;;;8.13;;
6422;SDS011;3244;42.708;23.288;2023-07-24T00:34:34;8.65;;;7.93;;
6422;SDS011;3244;42.708;23.288;2023-07-24T00:37:00;8.27;;;7.50;;
6422;SDS011;3244;42.708;23.288;2023-07-24T00:39:26;9.25;;;8.45;;
6422;SDS011;3244;42.708;23.288;2023-07-24T00:41:56;9.52;;;8.38;;
6422;SDS011;3244;42.708;23.288;2023-07-24T00:44:22;8.98;;;7.78;;
6422;SDS011;3244;42.708;23.288;2023-07-24T00:46:49;9.90;;;9.00;;
6422;SDS011;3244;42.708;23.288;2023-07-24T00:49:15;9.55;;;8.55;;
6422;SDS011;3244;42.708;23.288;2023-07-24T00:51:42;9.07;;;8.15;;
6422;SDS011;3244;42.708;23.288;2023-07-24T00:54:09;10.70;;;7.50;;
6422;SDS011;3244;42.708;23.288;2023-07-24T00:56:37;8.63;;;7.82;;
6422;SDS011;3244;42.708;23.288;2023-07-24T00:59:05;8.88;;;8.18;;
6422;SDS011;3244;42.708;23.288;2023-07-24T01:01:32;8.95;;;8.07;;
6422;SDS011;3244;42.708;23.288;2023-07-24T01:03:58;9.13;;;8.38;;
6422;SDS011;3244;42.708;23.288;2023-07-24T01:06:25;13.70;;;8.70;;
6422;SDS011;3244;42.708;23.288;2023-07-24T01:08:51;9.57;;;8.70;;
6422;SDS011;3244;42.708;23.288;2023-07-24T01:11:19;10.85;;;7.70;;
6422;SDS011;3244;42.708;23.288;2023-07-24T01:13:47;9.95;;;7.78;;
6422;SDS011;3244;42.708;23.288;2023-07-24T01:16:17;8.73;;;7.88;;
6422;SDS011;3244;42.708;23.288;2023-07-24T01:18:44;10.68;;;8.38;;
6422;SDS011;3244;42.708;23.288;2023-07-24T01:21:11;9.25;;;8.18;;
6422;SDS011;3244;42.708;23.288;2023-07-24T01:23:41;8.98;;;8.07;;
6422;SDS011;3244;42.708;23.288;2023-07-24T01:26:12;10.02;;;9.02;;
6422;SDS011;3244;42.708;23.288;2023-07-24T01:28:39;9.98;;;8.60;;
6422;SDS011;3244;42.708;23.288;2023-07-24T01:31:05;9.18;;;8.27;;
6422;SDS011;3244;42.708;23.288;2023-07-24T01:33:32;9.30;;;8.07;;
6422;SDS011;3244;42.708;23.288;2023-07-24T01:36:00;10.02;;;9.05;;
6422;SDS011;3244;42.708;23.288;2023-07-24T01:38:28;9.32;;;8.52;;
6422;SDS011;3244;42.708;23.288;2023-07-24T01:40:57;9.95;;;9.00;;
6422;SDS011;3244;42.708;23.288;2023-07-24T01:43:25;11.63;;;9.27;;
6422;SDS011;3244;42.708;23.288;2023-07-24T01:45:52;9.20;;;8.30;;
6422;SDS011;3244;42.708;23.288;2023-07-24T01:48:18;8.05;;;7.25;;
6422;SDS011;3244;42.708;23.288;2023-07-24T01:50:45;13.23;;;8.85;;
6422;SDS011;3244;42.708;23.288;2023-07-24T01:53:11;11.23;;;8.43;;
6422;SDS011;3244;42.708;23.288;2023-07-24T01:55:38;8.93;;;7.93;;
6422;SDS011;3244;42.708;23.288;2023-07-24T01:58:04;9.18;;;8.30;;
6422;SDS011;3244;42.708;23.288;2023-07-24T02:00:32;9.23;;;8.38;;
6422;SDS011;3244;42.708;23.288;2023-07-24T02:02:59;8.65;;;7.82;;
6422;SDS011;3244;42.708;23.288;2023-07-24T02:05:25;9.25;;;8.35;;
6422;SDS011;3244;42.708;23.288;2023-07-24T02:07:52;8.52;;;7.93;;
6422;SDS011;3244;42.708;23.288;2023-07-24T02:10:18;10.35;;;8.00;;
6422;SDS011;3244;42.708;23.288;2023-07-24T02:12:45;8.90;;;8.05;;
6422;SDS011;3244;42.708;23.288;2023-07-24T02:15:11;11.70;;;8.13;;
6422;SDS011;3244;42.708;23.288;2023-07-24T02:17:39;8.48;;;7.68;;
6422;SDS011;3244;42.708;23.288;2023-07-24T02:20:07;8.48;;;7.82;;
6422;SDS011;3244;42.708;23.288;2023-07-24T02:22:34;8.98;;;8.07;;
6422;SDS011;3244;42.708;23.288;2023-07-24T02:25:00;9.38;;;8.45;;
6422;SDS011;3244;42.708;23.288;2023-07-24T02:27:27;8.82;;;8.02;;
6422;SDS011;3244;42.708;23.288;2023-07-24T02:29:56;9.18;;;8.30;;
6422;SDS011;3244;42.708;23.288;2023-07-24T02:32:22;9.43;;;7.90;;
6422;SDS011;3244;42.708;23.288;2023-07-24T02:34:50;7.88;;;7.18;;
6422;SDS011;3244;42.708;23.288;2023-07-24T02:37:17;9.35;;;8.52;;
6422;SDS011;3244;42.708;23.288;2023-07-24T02:39:43;7.95;;;7.25;;
6422;SDS011;3244;42.708;23.288;2023-07-24T02:42:10;9.55;;;8.68;;
6422;SDS011;3244;42.708;23.288;2023-07-24T02:44:36;8.13;;;7.53;;
6422;SDS011;3244;42.708;23.288;2023-07-24T02:47:03;7.90;;;7.30;;
6422;SDS011;3244;42.708;23.288;2023-07-24T02:49:30;7.78;;;7.07;;
6422;SDS011;3244;42.708;23.288;2023-07-24T02:51:58;8.90;;;8.20;;
6422;SDS011;3244;42.708;23.288;2023-07-24T02:54:25;8.23;;;7.50;;
6422;SDS011;3244;42.708;23.288;2023-07-24T02:56:51;8.05;;;7.47;;
6422;SDS011;3244;42.708;23.288;2023-07-24T02:59:18;7.97;;;7.22;;
6422;SDS011;3244;42.708;23.288;2023-07-24T03:01:44;8.48;;;7.60;;
6422;SDS011;3244;42.708;23.288;2023-07-24T03:04:10;7.88;;;7.28;;
6422;SDS011;3244;42.708;23.288;2023-07-24T03:06:38;8.70;;;7.82;;
6422;SDS011;3244;42.708;23.288;2023-07-24T03:09:06;8.10;;;7.38;;
6422;SDS011;3244;42.708;23.288;2023-07-24T03:11:32;8.77;;;8.07;;
6422;SDS011;3244;42.708;23.288;2023-07-24T03:13:59;8.27;;;7.47;;
6422;SDS011;3244;42.708;23.288;2023-07-24T03:16:25;11.02;;;8.25;;
6422;SDS011;3244;42.708;23.288;2023-07-24T03:18:52;13.98;;;8.90;;
6422;SDS011;3244;42.708;23.288;2023-07-24T03:21:18;10.20;;;9.25;;
6422;SDS011;3244;42.708;23.288;2023-07-24T03:23:45;8.82;;;8.13;;
6422;SDS011;3244;42.708;23.288;2023-07-24T03:26:13;8.55;;;7.75;;
6422;SDS011;3244;42.708;23.288;2023-07-24T03:28:39;8.85;;;8.05;;
6422;SDS011;3244;42.708;23.288;2023-07-24T03:31:05;9.90;;;8.23;;
6422;SDS011;3244;42.708;23.288;2023-07-24T03:33:32;10.02;;;9.13;;
6422;SDS011;3244;42.708;23.288;2023-07-24T03:35:58;11.02;;;7.60;;
6422;SDS011;3244;42.708;23.288;2023-07-24T03:38:25;9.30;;;7.47;;
6422;SDS011;3244;42.708;23.288;2023-07-24T03:40:51;8.88;;;7.85;;
6422;SDS011;3244;42.708;23.288;2023-07-24T03:43:19;11.13;;;8.48;;
6422;SDS011;3244;42.708;23.288;2023-07-24T03:45:45;9.95;;;7.50;;
6422;SDS011;3244;42.708;23.288;2023-07-24T03:48:12;8.60;;;7.60;;
6422;SDS011;3244;42.708;23.288;2023-07-24T03:50:40;7.72;;;7.13;;
6422;SDS011;3244;42.708;23.288;2023-07-24T03:53:06;9.02;;;8.25;;
6422;SDS011;3244;42.708;23.288;2023-07-24T03:55:33;8.68;;;7.88;;
6422;SDS011;3244;42.708;23.288;2023-07-24T03:57:59;8.90;;;8.10;;
6422;SDS011;3244;42.708;23.288;2023-07-24T04:00:27;8.73;;;7.93;;
6422;SDS011;3244;42.708;23.288;2023-07-24T04:02:53;8.98;;;8.27;;
6422;SDS011;3244;42.708;23.288;2023-07-24T04:05:20;8.77;;;7.97;;
6422;SDS011;3244;42.708;23.288;2023-07-24T04:07:46;12.93;;;7.85;;
6422;SDS011;3244;42.708;23.288;2023-07-24T04:10:13;11.35;;;7.97;;
6422;SDS011;3244;42.708;23.288;2023-07-24T04:12:39;9.40;;;8.50;;
6422;SDS011;3244;42.708;23.288;2023-07-24T04:15:06;9.90;;;8.38;;
6422;SDS011;3244;42.708;23.288;2023-07-24T04:17:34;9.77;;;8.57;;
6422;SDS011;3244;42.708;23.288;2023-07-24T04:20:01;11.73;;;8.45;;
6422;SDS011;3244;42.708;23.288;2023-07-24T04:22:28;11.73;;;9.23;;
6422;SDS011;3244;42.708;23.288;2023-07-24T04:24:54;11.13;;;8.60;;
6422;SDS011;3244;42.708;23.288;2023-07-24T04:27:21;10.57;;;9.48;;
6422;SDS011;3244;42.708;23.288;2023-07-24T04:29:47;9.23;;;8.32;;
6422;SDS011;3244;42.708;23.288;2023-07-24T04:32:14;8.98;;;8.18;;
6422;SDS011;3244;42.708;23.288;2023-07-24T04:34:41;12.38;;;8.88;;
6422;SDS011;3244;42.708;23.288;2023-07-24T04:37:08;9.77;;;8.38;;
6422;SDS011;3244;42.708;23.288;2023-07-24T04:39:34;13.77;;;8.73;;
6422;SDS011;3244;42.708;23.288;2023-07-24T04:42:01;13.30;;;8.48;;
6422;SDS011;3244;42.708;23.288;2023-07-24T04:44:28;9.93;;;8.05;;
6422;SDS011;3244;42.708;23.288;2023-07-24T04:46:54;10.35;;;9.25;;
6422;SDS011;3244;42.708;23.288;2023-07-24T04:49:21;9.57;;;8.77;;
6422;SDS011;3244;42.708;23.288;2023-07-24T04:51:49;12.27;;;8.98;;
6422;SDS011;3244;42.708;23.288;2023-07-24T04:54:16;9.60;;;8.20;;
6422;SDS011;3244;42.708;23.288;2023-07-24T04:56:42;8.75;;;7.90;;
6422;SDS011;3244;42.708;23.288;2023-07-24T04:59:09;8.10;;;7.28;;
6422;SDS011;3244;42.708;23.288;2023-07-24T05:01:35;12.88;;;8.70;;
6422;SDS011;3244;42.708;23.288;2023-07-24T05:04:02;13.07;;;8.32;;
6422;SDS011;3244;42.708;23.288;2023-07-24T05:06:29;11.48;;;8.73;;
6422;SDS011;3244;42.708;23.288;2023-07-24T05:08:56;9.80;;;8.80;;
6422;SDS011;3244;42.708;23.288;2023-07-24T05:11:23;8.60;;;7.70;;
6422;SDS011;3244;42.708;23.288;2023-07-24T05:13:49;10.13;;;9.13;;
6422;SDS011;3244;42.708;23.288;2023-07-24T05:16:16;9.52;;;8.82;;
6422;SDS011;3244;42.708;23.288;2023-07-24T05:18:42;12.38;;;10.13;;
6422;SDS011;3244;42.708;23.288;2023-07-24T05:21:08;11.10;;;9.20;;
6422;SDS011;3244;42.708;23.288;2023-07-24T05:23:35;11.70;;;10.63;;
6422;SDS011;3244;42.708;23.288;2023-07-24T05:26:03;13.50;;;12.13;;
6422;SDS011;3244;42.708;23.288;2023-07-24T05:28:30;17.77;;;10.48;;
6422;SDS011;3244;42.708;23.288;2023-07-24T05:30:59;11.93;;;10.23;;
6422;SDS011;3244;42.708;23.288;2023-07-24T05:33:26;11.05;;;9.77;;
6422;SDS011;3244;42.708;23.288;2023-07-24T05:35:53;15.80;;;10.32;;
6422;SDS011;3244;42.708;23.288;2023-07-24T05:38:23;12.85;;;10.00;;
6422;SDS011;3244;42.708;23.288;2023-07-24T05:40:53;10.63;;;9.63;;
6422;SDS011;3244;42.708;23.288;2023-07-24T05:43:21;12.38;;;9.95;;
6422;SDS011;3244;42.708;23.288;2023-07-24T05:45:48;14.45;;;10.50;;
6422;SDS011;3244;42.708;23.288;2023-07-24T05:48:14;15.50;;;10.85;;
6422;SDS011;3244;42.708;23.288;2023-07-24T05:50:40;15.75;;;11.00;;
6422;SDS011;3244;42.708;23.288;2023-07-24T05:53:07;14.70;;;10.88;;
6422;SDS011;3244;42.708;23.288;2023-07-24T05:55:33;12.70;;;10.38;;
6422;SDS011;3244;42.708;23.288;2023-07-24T05:58:00;13.52;;;10.60;;
6422;SDS011;3244;42.708;23.288;2023-07-24T06:00:27;16.90;;;10.27;;
6422;SDS011;3244;42.708;23.288;2023-07-24T06:02:54;18.25;;;10.43;;
6422;SDS011;3244;42.708;23.288;2023-07-24T06:05:20;15.13;;;10.70;;
6422;SDS011;3244;42.708;23.288;2023-07-24T06:07:47;17.13;;;11.20;;
6422;SDS011;3244;42.708;23.288;2023-07-24T06:10:13;12.38;;;10.27;;
6422;SDS011;3244;42.708;23.288;2023-07-24T06:12:40;20.40;;;11.00;;
6422;SDS011;3244;42.708;23.288;2023-07-24T06:15:07;13.57;;;10.82;;
6422;SDS011;3244;42.708;23.288;2023-07-24T06:17:34;14.23;;;11.25;;
6422;SDS011;3244;42.708;23.288;2023-07-24T06:20:01;14.00;;;9.85;;
6422;SDS011;3244;42.708;23.288;2023-07-24T06:22:27;13.27;;;10.27;;
6422;SDS011;3244;42.708;23.288;2023-07-24T06:24:54;10.57;;;9.70;;
6422;SDS011;3244;42.708;23.288;2023-07-24T06:27:20;14.65;;;10.13;;
6422;SDS011;3244;42.708;23.288;2023-07-24T06:29:47;10.55;;;9.55;;
6422;SDS011;3244;42.708;23.288;2023-07-24T06:32:13;11.07;;;9.98;;
6422;SDS011;3244;42.708;23.288;2023-07-24T06:34:41;11.27;;;9.32;;
6422;SDS011;3244;42.708;23.288;2023-07-24T06:37:07;11.95;;;9.52;;
6422;SDS011;3244;42.708;23.288;2023-07-24T06:39:34;10.82;;;9.15;;
6422;SDS011;3244;42.708;23.288;2023-07-24T06:42:01;13.60;;;9.65;;
6422;SDS011;3244;42.708;23.288;2023-07-24T06:44:27;10.77;;;9.55;;
6422;SDS011;3244;42.708;23.288;2023-07-24T06:46:54;11.15;;;10.20;;
6422;SDS011;3244;42.708;23.288;2023-07-24T06:49:21;10.88;;;9.70;;
6422;SDS011;3244;42.708;23.288;2023-07-24T06:51:49;10.32;;;9.15;;
6422;SDS011;3244;42.708;23.288;2023-07-24T06:54:15;10.25;;;8.88;;
6422;SDS011;3244;42.708;23.288;2023-07-24T06:56:42;12.65;;;9.40;;
6422;SDS011;3244;42.708;23.288;2023-07-24T06:59:09;11.80;;;9.65;;
6422;SDS011;3244;42.708;23.288;2023-07-24T07:01:35;12.38;;;10.10;;
6422;SDS011;3244;42.708;23.288;2023-07-24T07:04:02;10.02;;;9.23;;
6422;SDS011;3244;42.708;23.288;2023-07-24T07:06:29;10.35;;;9.35;;
6422;SDS011;3244;42.708;23.288;2023-07-24T07:08:57;13.27;;;10.00;;
6422;SDS011;3244;42.708;23.288;2023-07-24T07:11:23;18.23;;;10.85;;
6422;SDS011;3244;42.708;23.288;2023-07-24T07:13:50;11.50;;;10.35;;
6422;SDS011;3244;42.708;23.288;2023-07-24T07:16:17;16.83;;;9.60;;
6422;SDS011;3244;42.708;23.288;2023-07-24T07:18:44;14.90;;;9.75;;
6422;SDS011;3244;42.708;23.288;2023-07-24T07:21:10;12.75;;;9.65;;
6422;SDS011;3244;42.708;23.288;2023-07-24T07:23:37;11.95;;;10.00;;
6422;SDS011;3244;42.708;23.288;2023-07-24T07:26:05;13.95;;;9.57;;
6422;SDS011;3244;42.708;23.288;2023-07-24T07:28:31;10.15;;;9.15;;
6422;SDS011;3244;42.708;23.288;2023-07-24T07:30:58;11.88;;;9.15;;
6422;SDS011;3244;42.708;23.288;2023-07-24T07:33:25;13.50;;;10.15;;
6422;SDS011;3244;42.708;23.288;2023-07-24T07:35:51;10.68;;;9.65;;
6422;SDS011;3244;42.708;23.288;2023-07-24T07:38:18;13.65;;;9.18;;
6422;SDS011;3244;42.708;23.288;2023-07-24T07:40:44;15.07;;;9.27;;
6422;SDS011;3244;42.708;23.288;2023-07-24T07:43:12;11.43;;;10.30;;
6422;SDS011;3244;42.708;23.288;2023-07-24T07:45:38;9.98;;;8.95;;
6422;SDS011;3244;42.708;23.288;2023-07-24T07:48:05;11.13;;;10.15;;
6422;SDS011;3244;42.708;23.288;2023-07-24T07:50:32;18.40;;;14.27;;
6422;SDS011;3244;42.708;23.288;2023-07-24T07:52:58;13.73;;;10.20;;
6422;SDS011;3244;42.708;23.288;2023-07-24T07:55:25;10.98;;;10.20;;
6422;SDS011;3244;42.708;23.288;2023-07-24T07:57:51;11.45;;;9.95;;
6422;SDS011;3244;42.708;23.288;2023-07-24T08:00:19;10.25;;;9.40;;
6422;SDS011;3244;42.708;23.288;2023-07-24T08:02:46;9.75;;;8.80;;
6422;SDS011;3244;42.708;23.288;2023-07-24T08:05:13;10.98;;;9.70;;
6422;SDS011;3244;42.708;23.288;2023-07-24T08:07:40;9.55;;;8.95;;
6422;SDS011;3244;42.708;23.288;2023-07-24T08:10:07;9.77;;;8.73;;
6422;SDS011;3244;42.708;23.288;2023-07-24T08:12:34;11.15;;;9.90;;
6422;SDS011;3244;42.708;23.288;2023-07-24T08:15:00;10.35;;;9.40;;
6422;SDS011;3244;42.708;23.288;2023-07-24T08:17:28;14.93;;;9.25;;
6422;SDS011;3244;42.708;23.288;2023-07-24T08:19:56;10.77;;;9.82;;
6422;SDS011;3244;42.708;23.288;2023-07-24T08:22:22;11.68;;;10.90;;
6422;SDS011;3244;42.708;23.288;2023-07-24T08:24:49;13.55;;;10.02;;
6422;SDS011;3244;42.708;23.288;2023-07-24T08:27:16;10.98;;;9.95;;
6422;SDS011;3244;42.708;23.288;2023-07-24T08:29:43;13.50;;;9.98;;
6422;SDS011;3244;42.708;23.288;2023-07-24T08:32:09;11.75;;;10.77;;
6422;SDS011;3244;42.708;23.288;2023-07-24T08:34:37;10.00;;;8.88;;
6422;SDS011;3244;42.708;23.288;2023-07-24T08:37:04;14.07;;;9.95;;
6422;SDS011;3244;42.708;23.288;2023-07-24T08:39:31;10.25;;;9.45;;
6422;SDS011;3244;42.708;23.288;2023-07-24T08:41:58;11.93;;;10.00;;
6422;SDS011;3244;42.708;23.288;2023-07-24T08:44:24;11.70;;;10.38;;
6422;SDS011;3244;42.708;23.288;2023-07-24T08:46:56;11.52;;;10.40;;
6422;SDS011;3244;42.708;23.288;2023-07-24T08:49:23;10.25;;;9.32;;
6422;SDS011;3244;42.708;23.288;2023-07-24T08:51:52;12.15;;;10.85;;
6422;SDS011;3244;42.708;23.288;2023-07-24T08:54:20;11.32;;;10.02;;
6422;SDS011;3244;42.708;23.288;2023-07-24T08:56:47;10.63;;;9.73;;
6422;SDS011;3244;42.708;23.288;2023-07-24T08:59:15;11.82;;;10.20;;
6422;SDS011;3244;42.708;23.288;2023-07-24T09:01:42;14.40;;;10.23;;
6422;SDS011;3244;42.708;23.288;2023-07-24T09:04:09;12.65;;;11.05;;
6422;SDS011;3244;42.708;23.288;2023-07-24T09:06:36;11.43;;;10.27;;
6422;SDS011;3244;42.708;23.288;2023-07-24T09:09:12;11.57;;;10.38;;
6422;SDS011;3244;42.708;23.288;2023-07-24T09:11:47;11.65;;;10.40;;
6422;SDS011;3244;42.708;23.288;2023-07-24T09:14:22;12.20;;;10.82;;
6422;SDS011;3244;42.708;23.288;2023-07-24T09:16:49;16.13;;;10.35;;
6422;SDS011;3244;42.708;23.288;2023-07-24T09:19:18;15.07;;;10.38;;
6422;SDS011;3244;42.708;23.288;2023-07-24T09:21:44;11.80;;;10.00;;
6422;SDS011;3244;42.708;23.288;2023-07-24T09:24:13;16.33;;;10.43;;
6422;SDS011;3244;42.708;23.288;2023-07-24T09:26:48;16.50;;;10.82;;
6422;SDS011;3244;42.708;23.288;2023-07-24T09:29:16;15.13;;;11.10;;
6422;SDS011;3244;42.708;23.288;2023-07-24T09:31:43;11.93;;;10.63;;
6422;SDS011;3244;42.708;23.288;2023-07-24T09:34:14;13.60;;;10.88;;
6422;SDS011;3244;42.708;23.288;2023-07-24T09:36:44;15.50;;;11.68;;
6422;SDS011;3244;42.708;23.288;2023-07-24T09:39:11;15.20;;;11.38;;
6422;SDS011;3244;42.708;23.288;2023-07-24T09:41:39;13.98;;;10.73;;
6422;SDS011;3244;42.708;23.288;2023-07-24T09:44:06;12.25;;;10.95;;
6422;SDS011;3244;42.708;23.288;2023-07-24T09:46:33;13.27;;;11.25;;
6422;SDS011;3244;42.708;23.288;2023-07-24T09:49:00;17.90;;;10.95;;
6422;SDS011;3244;42.708;23.288;2023-07-24T09:51:28;14.75;;;11.18;;
6422;SDS011;3244;42.708;23.288;2023-07-24T09:53:58;13.52;;;9.93;;
6422;SDS011;3244;42.708;23.288;2023-07-24T09:56:28;11.30;;;10.07;;
6422;SDS011;3244;42.708;23.288;2023-07-24T09:58:56;18.20;;;11.23;;
6422;SDS011;3244;42.708;23.288;2023-07-24T10:01:22;14.90;;;11.35;;
6422;SDS011;3244;42.708;23.288;2023-07-24T10:03:51;19.83;;;10.07;;
6422;SDS011;3244;42.708;23.288;2023-07-24T10:06:18;15.07;;;10.23;;
6422;SDS011;3244;42.708;23.288;2023-07-24T10:08:45;12.88;;;10.18;;
6422;SDS011;3244;42.708;23.288;2023-07-24T10:11:13;19.85;;;11.32;;
6422;SDS011;3244;42.708;23.288;2023-07-24T10:13:41;16.45;;;10.73;;
6422;SDS011;3244;42.708;23.288;2023-07-24T10:16:08;13.10;;;10.13;;
6422;SDS011;3244;42.708;23.288;2023-07-24T10:18:40;14.73;;;10.60;;
6422;SDS011;3244;42.708;23.288;2023-07-24T10:21:10;14.68;;;11.05;;
6422;SDS011;3244;42.708;23.288;2023-07-24T10:23:39;13.68;;;10.30;;
6422;SDS011;3244;42.708;23.288;2023-07-24T10:26:08;16.40;;;10.77;;
6422;SDS011;3244;42.708;23.288;2023-07-24T10:28:35;14.63;;;10.70;;
6422;SDS011;3244;42.708;23.288;2023-07-24T10:31:05;16.67;;;11.60;;
6422;SDS011;3244;42.708;23.288;2023-07-24T10:33:34;20.65;;;10.75;;
6422;SDS011;3244;42.708;23.288;2023-07-24T10:36:03;16.70;;;11.30;;
6422;SDS011;3244;42.708;23.288;2023-07-24T10:38:33;19.25;;;11.57;;
6422;SDS011;3244;42.708;23.288;2023-07-24T10:41:01;16.13;;;10.18;;
6422;SDS011;3244;42.708;23.288;2023-07-24T10:43:39;21.80;;;10.30;;
6422;SDS011;3244;42.708;23.288;2023-07-24T10:46:08;16.17;;;9.73;;
6422;SDS011;3244;42.708;23.288;2023-07-24T10:48:34;15.35;;;9.30;;
6422;SDS011;3244;42.708;23.288;2023-07-24T10:51:05;14.70;;;9.07;;
6422;SDS011;3244;42.708;23.288;2023-07-24T10:53:34;16.40;;;9.35;;
6422;SDS011;3244;42.708;23.288;2023-07-24T10:56:01;10.40;;;9.02;;
6422;SDS011;3244;42.708;23.288;2023-07-24T10:58:28;12.32;;;10.20;;
6422;SDS011;3244;42.708;23.288;2023-07-24T11:00:55;17.80;;;9.77;;
6422;SDS011;3244;42.708;23.288;2023-07-24T11:03:24;12.20;;;9.77;;
6422;SDS011;3244;42.708;23.288;2023-07-24T11:05:51;22.65;;;8.88;;
6422;SDS011;3244;42.708;23.288;2023-07-24T11:08:18;15.02;;;10.23;;
6422;SDS011;3244;42.708;23.288;2023-07-24T11:10:45;11.75;;;9.73;;
6422;SDS011;3244;42.708;23.288;2023-07-24T11:13:13;13.65;;;8.63;;
6422;SDS011;3244;42.708;23.288;2023-07-24T11:15:39;13.75;;;8.82;;
6422;SDS011;3244;42.708;23.288;2023-07-24T11:18:06;12.90;;;9.65;;
6422;SDS011;3244;42.708;23.288;2023-07-24T11:20:35;16.05;;;9.68;;
6422;SDS011;3244;42.708;23.288;2023-07-24T11:23:03;14.48;;;9.45;;
6422;SDS011;3244;42.708;23.288;2023-07-24T11:25:30;15.40;;;9.68;;
6422;SDS011;3244;42.708;23.288;2023-07-24T11:27:58;11.38;;;8.82;;
6422;SDS011;3244;42.708;23.288;2023-07-24T11:30:24;17.55;;;9.23;;
6422;SDS011;3244;42.708;23.288;2023-07-24T11:32:51;11.05;;;8.93;;
6422;SDS011;3244;42.708;23.288;2023-07-24T11:35:19;10.88;;;8.05;;
6422;SDS011;3244;42.708;23.288;2023-07-24T11:37:48;15.27;;;9.25;;
6422;SDS011;3244;42.708;23.288;2023-07-24T11:40:15;8.80;;;7.90;;
6422;SDS011;3244;42.708;23.288;2023-07-24T11:42:42;13.15;;;9.00;;
6422;SDS011;3244;42.708;23.288;2023-07-24T11:45:09;13.52;;;9.10;;
6422;SDS011;3244;42.708;23.288;2023-07-24T11:47:46;10.25;;;9.25;;
6422;SDS011;3244;42.708;23.288;2023-07-24T11:50:12;11.45;;;9.50;;
6422;SDS011;3244;42.708;23.288;2023-07-24T11:52:40;11.25;;;8.40;;
6422;SDS011;3244;42.708;23.288;2023-07-24T11:55:10;9.23;;;8.32;;
6422;SDS011;3244;42.708;23.288;2023-07-24T11:57:38;9.18;;;8.32;;
6422;SDS011;3244;42.708;23.288;2023-07-24T12:00:05;9.48;;;8.55;;
6422;SDS011;3244;42.708;23.288;2023-07-24T12:02:35;9.85;;;8.85;;
6422;SDS011;3244;42.708;23.288;2023-07-24T12:05:01;17.00;;;9.70;;
6422;SDS011;3244;42.708;23.288;2023-07-24T12:07:29;9.88;;;8.77;;
6422;SDS011;3244;42.708;23.288;2023-07-24T12:09:56;14.38;;;8.82;;
6422;SDS011;3244;42.708;23.288;2023-07-24T12:12:24;14.82;;;9.52;;
6422;SDS011;3244;42.708;23.288;2023-07-24T12:14:50;10.60;;;8.48;;
6422;SDS011;3244;42.708;23.288;2023-07-24T12:17:17;9.57;;;8.48;;
6422;SDS011;3244;42.708;23.288;2023-07-24T12:19:45;10.88;;;9.05;;
6422;SDS011;3244;42.708;23.288;2023-07-24T12:22:11;15.38;;;9.48;;
6422;SDS011;3244;42.708;23.288;2023-07-24T12:24:38;12.52;;;9.00;;
6422;SDS011;3244;42.708;23.288;2023-07-24T12:27:04;9.82;;;8.68;;
6422;SDS011;3244;42.708;23.288;2023-07-24T12:29:32;12.25;;;8.07;;
6422;SDS011;3244;42.708;23.288;2023-07-24T12:31:58;12.80;;;8.88;;
6422;SDS011;3244;42.708;23.288;2023-07-24T12:34:25;9.50;;;8.40;;
6422;SDS011;3244;42.708;23.288;2023-07-24T12:36:52;10.32;;;8.90;;
6422;SDS011;3244;42.708;23.288;2023-07-24T12:39:19;10.20;;;8.73;;
6422;SDS011;3244;42.708;23.288;2023-07-24T12:41:46;11.00;;;8.80;;
6422;SDS011;3244;42.708;23.288;2023-07-24T12:44:13;10.75;;;8.95;;
6422;SDS011;3244;42.708;23.288;2023-07-24T12:46:41;11.95;;;9.00;;
6422;SDS011;3244;42.708;23.288;2023-07-24T12:49:08;9.15;;;8.15;;
6422;SDS011;3244;42.708;23.288;2023-07-24T12:51:35;10.52;;;9.07;;
6422;SDS011;3244;42.708;23.288;2023-07-24T12:54:01;8.40;;;7.53;;
6422;SDS011;3244;42.708;23.288;2023-07-24T12:56:28;16.10;;;9.18;;
6422;SDS011;3244;42.708;23.288;2023-07-24T12:58:54;9.52;;;8.55;;
6422;SDS011;3244;42.708;23.288;2023-07-24T13:01:21;10.50;;;8.10;;
6422;SDS011;3244;42.708;23.288;2023-07-24T13:03:50;10.27;;;8.70;;
6422;SDS011;3244;42.708;23.288;2023-07-24T13:06:17;9.35;;;8.45;;
6422;SDS011;3244;42.708;23.288;2023-07-24T13:08:43;11.05;;;8.80;;
6422;SDS011;3244;42.708;23.288;2023-07-24T13:11:10;11.93;;;9.25;;
6422;SDS011;3244;42.708;23.288;2023-07-24T13:13:36;11.75;;;9.02;;
6422;SDS011;3244;42.708;23.288;2023-07-24T13:16:03;9.75;;;8.68;;
6422;SDS011;3244;42.708;23.288;2023-07-24T13:18:30;9.73;;;8.20;;
6422;SDS011;3244;42.708;23.288;2023-07-24T13:20:57;10.05;;;9.05;;
6422;SDS011;3244;42.708;23.288;2023-07-24T13:23:24;12.43;;;9.95;;
6422;SDS011;3244;42.708;23.288;2023-07-24T13:25:51;11.48;;;8.70;;
6422;SDS011;3244;42.708;23.288;2023-07-24T13:28:18;11.93;;;9.40;;
6422;SDS011;3244;42.708;23.288;2023-07-24T13:30:45;12.05;;;9.98;;
6422;SDS011;3244;42.708;23.288;2023-07-24T13:33:12;11.40;;;9.13;;
6422;SDS011;3244;42.708;23.288;2023-07-24T13:35:38;11.85;;;9.40;;
6422;SDS011;3244;42.708;23.288;2023-07-24T13:38:06;12.02;;;9.55;;
6422;SDS011;3244;42.708;23.288;2023-07-24T13:40:34;11.57;;;9.48;;
6422;SDS011;3244;42.708;23.288;2023-07-24T13:43:00;10.13;;;8.90;;
6422;SDS011;3244;42.708;23.288;2023-07-24T13:45:27;16.00;;;9.93;;
6422;SDS011;3244;42.708;23.288;2023-07-24T13:47:54;10.05;;;8.45;;
6422;SDS011;3244;42.708;23.288;2023-07-24T13:50:20;13.38;;;9.13;;
6422;SDS011;3244;42.708;23.288;2023-07-24T13:52:47;9.57;;;8.52;;
6422;SDS011;3244;42.708;23.288;2023-07-24T13:55:14;11.82;;;9.80;;
6422;SDS011;3244;42.708;23.288;2023-07-24T13:57:41;9.52;;;8.68;;
6422;SDS011;3244;42.708;23.288;2023-07-24T14:00:08;11.23;;;9.02;;
6422;SDS011;3244;42.708;23.288;2023-07-24T14:02:34;11.73;;;9.88;;
6422;SDS011;3244;42.708;23.288;2023-07-24T14:05:01;11.38;;;9.48;;
6422;SDS011;3244;42.708;23.288;2023-07-24T14:07:27;11.07;;;9.77;;
6422;SDS011;3244;42.708;23.288;2023-07-24T14:09:54;13.07;;;9.77;;
6422;SDS011;3244;42.708;23.288;2023-07-24T14:12:21;20.02;;;9.32;;
6422;SDS011;3244;42.708;23.288;2023-07-24T14:14:48;11.50;;;9.48;;
6422;SDS011;3244;42.708;23.288;2023-07-24T14:17:14;16.90;;;10.63;;
6422;SDS011;3244;42.708;23.288;2023-07-24T14:19:41;10.70;;;9.63;;
6422;SDS011;3244;42.708;23.288;2023-07-24T14:22:07;10.75;;;9.75;;
6422;SDS011;3244;42.708;23.288;2023-07-24T14:24:34;9.90;;;8.85;;
6422;SDS011;3244;42.708;23.288;2023-07-24T14:27:00;12.18;;;9.57;;
6422;SDS011;3244;42.708;23.288;2023-07-24T14:29:28;10.48;;;9.32;;
6422;SDS011;3244;42.708;23.288;2023-07-24T14:31:54;9.75;;;8.90;;
6422;SDS011;3244;42.708;23.288;2023-07-24T14:34:21;12.73;;;9.68;;
6422;SDS011;3244;42.708;23.288;2023-07-24T14:36:47;9.95;;;8.98;;
6422;SDS011;3244;42.708;23.288;2023-07-24T14:39:14;10.70;;;9.13;;
6422;SDS011;3244;42.708;23.288;2023-07-24T14:41:40;11.15;;;9.98;;
6422;SDS011;3244;42.708;23.288;2023-07-24T14:44:07;10.57;;;9.48;;
6422;SDS011;3244;42.708;23.288;2023-07-24T14:46:34;10.68;;;9.52;;